createdAt,value
2018-09-18T02:52:54.720Z,27.40
2018-09-18T02:55:31.511Z,19.60
2018-09-18T02:58:04.758Z,19.40
2018-09-18T03:00:38.481Z,19.30
2018-09-18T03:03:11.142Z,19.30
2018-09-18T03:05:43.972Z,19.20
2018-09-18T03:08:18.565Z,19.20
2018-09-18T03:10:53.026Z,19.10
2018-09-18T03:13:27.313Z,19.10
2018-09-18T03:16:01.126Z,19.10
2018-09-18T03:18:37.355Z,19.00
2018-09-18T03:21:13.827Z,19.00
2018-09-18T03:23:49.687Z,19.00
2018-09-18T03:26:22.621Z,19.00
2018-09-18T03:28:55.410Z,19.00
2018-09-18T03:31:28.284Z,19.00
2018-09-18T03:34:02.930Z,19.10
2018-09-18T03:36:35.725Z,19.00
2018-09-18T03:39:10.223Z,19.00
2018-09-18T03:41:42.992Z,19.00
2018-09-18T03:44:15.791Z,19.00
2018-09-18T03:46:48.998Z,19.00
2018-09-18T03:49:22.123Z,19.00
2018-09-18T03:51:54.814Z,18.90
2018-09-18T03:54:27.509Z,18.90
2018-09-18T03:57:00.401Z,19.00
2018-09-18T03:59:34.193Z,19.00
2018-09-18T04:02:07.947Z,18.90
2018-09-18T04:04:40.627Z,18.80
2018-09-18T04:07:13.205Z,18.70
2018-09-18T04:09:45.885Z,18.60
2018-09-18T04:12:19.975Z,18.60
2018-09-18T04:14:52.690Z,18.60
2018-09-18T04:17:50.832Z,18.60
2018-09-18T04:20:29.406Z,18.60
2018-09-18T04:23:16.008Z,18.60
2018-09-18T04:25:53.020Z,18.60
2018-09-18T04:28:31.020Z,18.50
2018-09-18T04:31:16.043Z,18.60
2018-09-18T04:37:10.612Z,18.60
2018-09-18T04:39:44.593Z,18.60
2018-09-18T04:42:18.438Z,18.60
2018-09-18T04:44:50.931Z,18.60
2018-09-18T04:47:23.954Z,18.70
2018-09-18T04:49:57.708Z,18.70
2018-09-18T04:55:51.443Z,18.80
2018-09-18T05:01:56.077Z,18.90
2018-09-18T05:04:35.824Z,18.90
2018-09-18T05:07:11.828Z,18.90
2018-09-18T05:09:47.232Z,19.00
2018-09-18T05:12:21.447Z,18.90
2018-09-18T05:14:55.246Z,18.80
2018-09-18T05:17:28.873Z,18.80
2018-09-18T05:20:02.487Z,18.80
2018-09-18T05:22:36.072Z,18.80
2018-09-18T05:25:10.016Z,18.80
2018-09-18T05:27:43.593Z,18.80
2018-09-18T05:30:17.022Z,18.80
2018-09-18T05:32:50.366Z,18.80
2018-09-18T05:35:24.279Z,18.90
2018-09-18T05:37:57.953Z,18.80
2018-09-18T05:40:30.704Z,18.70
2018-09-18T05:43:04.925Z,18.70
2018-09-18T05:45:38.165Z,18.70
2018-09-18T05:48:16.721Z,18.70
2018-09-18T05:50:50.106Z,18.70
2018-09-18T05:53:23.353Z,18.60
2018-09-18T05:55:56.652Z,18.50
2018-09-18T05:58:30.591Z,18.40
2018-09-18T06:01:03.669Z,18.20
2018-09-18T06:03:37.303Z,18.10
2018-09-18T06:06:10.616Z,18.10
2018-09-18T06:08:44.582Z,18.10
2018-09-18T06:11:18.024Z,18.00
2018-09-18T06:13:51.693Z,17.90
2018-09-18T06:16:24.912Z,17.80
2018-09-18T06:18:58.080Z,17.60
2018-09-18T06:21:31.231Z,17.50
2018-09-18T06:24:05.080Z,17.40
2018-09-18T06:26:38.461Z,17.40
2018-09-18T06:29:11.768Z,17.40
2018-09-18T06:31:45.355Z,17.30
2018-09-18T06:34:18.618Z,17.30
2018-09-18T06:36:52.119Z,17.30
2018-09-18T06:39:26.144Z,17.20
2018-09-18T06:41:59.456Z,17.20
2018-09-18T06:44:32.537Z,17.20
2018-09-18T06:47:06.173Z,17.10
2018-09-18T06:49:40.309Z,17.10
2018-09-18T06:52:13.360Z,17.10
2018-09-18T06:54:46.860Z,17.10
2018-09-18T06:57:20.073Z,17.10
2018-09-18T06:59:53.399Z,17.00
2018-09-18T07:02:26.953Z,17.00
2018-09-18T07:05:00.164Z,17.00
2018-09-18T07:07:33.633Z,16.90
2018-09-18T07:10:07.497Z,16.90
2018-09-18T07:12:41.052Z,16.90
2018-09-18T07:15:15.028Z,16.90
2018-09-18T07:17:48.608Z,16.90
2018-09-18T07:20:22.161Z,16.80
2018-09-18T07:22:56.432Z,16.80
2018-09-18T07:25:29.778Z,16.80
2018-09-18T07:28:03.753Z,16.80
2018-09-18T07:30:37.240Z,16.70
2018-09-18T07:33:10.289Z,16.70
2018-09-18T07:35:44.591Z,16.60
2018-09-18T07:38:18.189Z,16.50
2018-09-18T07:40:51.568Z,16.60
2018-09-18T07:43:25.240Z,16.60
2018-09-18T07:45:58.361Z,16.50
2018-09-18T07:48:37.882Z,16.50
2018-09-18T07:51:11.401Z,16.50
2018-09-18T07:53:44.735Z,16.50
2018-09-18T07:56:17.967Z,16.60
2018-09-18T07:58:51.325Z,16.60
2018-09-18T08:01:24.975Z,16.60
2018-09-18T08:03:58.584Z,16.50
2018-09-18T08:06:32.005Z,16.40
2018-09-18T08:09:06.134Z,16.50
2018-09-18T08:11:39.863Z,16.50
2018-09-18T08:14:13.224Z,16.40
2018-09-18T08:16:46.508Z,16.50
2018-09-18T08:19:19.979Z,16.50
2018-09-18T08:21:53.309Z,16.50
2018-09-18T08:24:26.841Z,16.50
2018-09-18T08:27:00.636Z,16.50
2018-09-18T08:29:34.364Z,16.50
2018-09-18T08:32:07.671Z,16.50
2018-09-18T08:34:41.563Z,16.50
2018-09-18T08:37:14.952Z,16.50
2018-09-18T08:40:18.820Z,16.50
2018-09-18T08:42:52.024Z,16.50
2018-09-18T08:45:25.542Z,16.60
2018-09-18T08:47:58.665Z,16.50
2018-09-18T08:50:32.619Z,16.50
2018-09-18T08:53:05.952Z,16.50
2018-09-18T08:55:39.794Z,16.50
2018-09-18T08:58:13.248Z,16.40
2018-09-18T09:00:46.804Z,16.40
2018-09-18T09:03:20.069Z,16.40
2018-09-18T09:05:53.617Z,16.40
2018-09-18T09:08:27.187Z,16.40
2018-09-18T09:11:00.752Z,16.40
2018-09-18T09:13:34.401Z,16.40
2018-09-18T09:16:07.827Z,16.40
2018-09-18T09:18:41.195Z,16.40
2018-09-18T09:21:14.685Z,16.50
2018-09-18T09:23:48.136Z,16.50
2018-09-18T09:26:21.665Z,16.50
2018-09-18T09:28:55.044Z,16.50
2018-09-18T09:31:28.376Z,16.50
2018-09-18T09:34:01.844Z,16.50
2018-09-18T09:36:35.176Z,16.50
2018-09-18T09:39:12.770Z,16.50
2018-09-18T09:41:46.401Z,16.50
2018-09-18T09:44:19.637Z,16.50
2018-09-18T09:46:53.433Z,16.50
2018-09-18T09:49:26.557Z,16.60
2018-09-18T09:52:00.042Z,16.60
2018-09-18T09:54:33.697Z,16.60
2018-09-18T09:57:07.130Z,16.50
2018-09-18T09:59:40.500Z,16.50
2018-09-18T10:02:18.897Z,16.50
2018-09-18T10:04:52.778Z,16.50
2018-09-18T10:07:25.974Z,16.50
2018-09-18T10:09:59.916Z,16.50
2018-09-18T10:12:33.322Z,16.50
2018-09-18T10:15:06.954Z,16.40
2018-09-18T10:17:41.284Z,16.40
2018-09-18T10:20:15.070Z,16.30
2018-09-18T10:22:48.937Z,16.30
2018-09-18T10:25:22.277Z,16.20
2018-09-18T10:27:55.815Z,16.20
2018-09-18T10:30:29.272Z,16.10
2018-09-18T10:33:02.885Z,16.00
2018-09-18T10:35:36.085Z,16.00
2018-09-18T10:38:10.064Z,15.90
2018-09-18T10:40:43.642Z,15.90
2018-09-18T10:43:17.051Z,15.90
2018-09-18T10:45:50.824Z,16.00
2018-09-18T10:48:24.153Z,16.00
2018-09-18T10:50:57.366Z,15.90
2018-09-18T10:53:30.724Z,16.00
2018-09-18T10:56:04.110Z,15.90
2018-09-18T10:58:37.407Z,16.00
2018-09-18T11:01:11.053Z,16.00
2018-09-18T11:04:12.405Z,16.00
2018-09-18T11:06:45.460Z,16.00
2018-09-18T11:09:18.317Z,15.90
2018-09-18T11:11:51.272Z,15.90
2018-09-18T11:14:25.105Z,15.90
2018-09-18T11:16:58.446Z,15.90
2018-09-18T11:19:31.557Z,15.90
2018-09-18T11:22:04.920Z,15.90
2018-09-18T11:24:38.149Z,15.90
2018-09-18T11:27:11.019Z,15.80
2018-09-18T11:29:44.234Z,15.80
2018-09-18T11:32:17.112Z,15.80
2018-09-18T11:34:49.960Z,15.80
2018-09-18T11:37:23.025Z,15.80
2018-09-18T11:39:56.247Z,15.80
2018-09-18T11:42:29.422Z,15.80
2018-09-18T11:45:02.697Z,15.80
2018-09-18T11:47:35.508Z,15.80
2018-09-18T11:50:08.749Z,15.80
2018-09-18T11:52:42.842Z,15.80
2018-09-18T11:55:16.442Z,15.80
2018-09-18T11:57:49.915Z,15.90
2018-09-18T12:00:22.714Z,15.90
2018-09-18T12:02:55.658Z,16.00
2018-09-18T12:05:28.657Z,16.10
2018-09-18T12:08:02.054Z,16.10
2018-09-18T12:10:35.923Z,16.10
2018-09-18T12:13:08.668Z,16.20
2018-09-18T12:15:42.128Z,16.20
2018-09-18T12:18:14.877Z,16.30
2018-09-18T12:20:48.751Z,16.40
2018-09-18T12:23:23.897Z,16.50
2018-09-18T12:25:59.262Z,16.60
2018-09-18T12:28:32.600Z,16.60
2018-09-18T12:31:32.103Z,16.70
2018-09-18T12:34:07.023Z,16.70
2018-09-18T12:36:43.398Z,16.90
2018-09-18T12:39:17.029Z,17.20
2018-09-18T12:41:49.388Z,17.60
2018-09-18T12:44:22.803Z,17.70
2018-09-18T12:46:55.483Z,17.80
2018-09-18T12:49:27.854Z,17.90
2018-09-18T12:52:01.263Z,18.00
2018-09-18T12:54:34.582Z,18.10
2018-09-18T12:57:08.922Z,18.30
2018-09-18T12:59:42.046Z,18.50
2018-09-18T13:02:14.823Z,18.80
2018-09-18T13:04:47.229Z,19.20
2018-09-18T13:07:19.727Z,19.50
2018-09-18T13:09:54.062Z,19.60
2018-09-18T13:12:26.378Z,19.60
2018-09-18T13:14:58.812Z,19.70
2018-09-18T13:17:32.743Z,19.80
2018-09-18T13:20:05.965Z,19.50
2018-09-18T13:22:38.865Z,19.60
2018-09-18T13:25:11.296Z,19.60
2018-09-18T13:27:43.637Z,20.00
2018-09-18T13:30:16.774Z,20.20
2018-09-18T13:32:49.290Z,20.80
2018-09-18T13:35:22.238Z,20.90
2018-09-18T13:37:55.312Z,21.20
2018-09-18T13:40:27.873Z,21.10
2018-09-18T13:43:01.633Z,21.30
2018-09-18T13:45:37.090Z,21.20
2018-09-18T13:48:10.010Z,21.20
2018-09-18T13:50:43.383Z,20.80
2018-09-18T13:53:16.315Z,21.40
2018-09-18T13:59:19.921Z,21.50
2018-09-18T14:01:52.821Z,21.70
2018-09-18T14:04:25.288Z,22.00
2018-09-18T14:06:57.963Z,22.00
2018-09-18T14:09:30.329Z,22.30
2018-09-18T14:12:02.707Z,22.20
2018-09-18T14:14:35.141Z,22.50
2018-09-18T14:17:07.408Z,22.30
2018-09-18T14:19:39.901Z,22.40
2018-09-18T14:22:12.686Z,22.50
2018-09-18T14:24:45.161Z,22.60
2018-09-18T14:27:17.499Z,22.60
2018-09-18T14:29:49.904Z,22.90
2018-09-18T14:32:22.202Z,22.90
2018-09-18T14:35:08.019Z,23.00
2018-09-18T14:37:59.206Z,22.90
2018-09-18T14:43:57.571Z,23.50
2018-09-18T14:46:34.035Z,23.50
2018-09-18T14:49:27.184Z,23.50
2018-09-18T14:52:21.673Z,23.60
2018-09-18T14:55:00.195Z,24.00
2018-09-18T14:57:39.675Z,23.50
2018-09-18T15:00:19.920Z,23.90
2018-09-18T15:03:04.326Z,24.00
2018-09-18T15:05:40.616Z,24.50
2018-09-18T15:39:30.336Z,23.20
2018-09-18T15:42:04.111Z,23.60
2018-09-18T15:44:37.859Z,23.80
2018-09-18T15:47:10.098Z,24.30
2018-09-18T15:49:43.918Z,23.90
2018-09-18T15:52:20.063Z,24.30
2018-09-18T15:54:52.566Z,24.30
2018-09-18T15:57:25.268Z,24.50
2018-09-18T15:59:57.556Z,24.20
2018-09-18T16:02:30.009Z,23.90
2018-09-18T16:05:05.057Z,23.60
2018-09-18T16:07:38.599Z,23.90
2018-09-18T16:10:27.722Z,23.80
2018-09-18T16:13:17.268Z,23.40
2018-09-18T16:16:13.328Z,23.70
2018-09-18T16:22:05.643Z,24.90
2018-09-18T16:25:02.618Z,24.90
2018-09-18T16:27:57.406Z,24.90
2018-09-18T16:30:56.941Z,24.90
2018-09-18T16:33:43.193Z,24.40
2018-09-18T16:36:43.704Z,24.10
2018-09-18T16:39:39.746Z,24.80
2018-09-18T16:42:36.294Z,24.30
2018-09-18T16:45:32.874Z,24.90
2018-09-18T16:48:25.590Z,24.80
2018-09-18T16:54:28.292Z,24.80
2018-09-18T16:57:08.121Z,24.50
2018-09-18T16:59:41.196Z,24.60
2018-09-18T17:02:30.589Z,24.70
2018-09-18T17:05:06.084Z,25.30
2018-09-18T17:08:00.261Z,26.30
2018-09-18T17:10:57.735Z,25.60
2018-09-18T17:13:52.886Z,25.30
2018-09-18T17:16:46.658Z,24.90
2018-09-18T17:19:55.052Z,24.60
2018-09-18T17:22:28.150Z,24.70
2018-09-18T17:25:01.453Z,26.00
2018-09-18T17:27:34.324Z,25.50
2018-09-18T17:30:07.649Z,24.90
2018-09-18T17:32:40.287Z,24.80
2018-09-18T17:35:13.403Z,24.90
2018-09-18T17:37:46.916Z,25.40
2018-09-18T17:40:20.111Z,25.90
2018-09-18T17:42:53.252Z,25.50
2018-09-18T17:45:26.226Z,25.80
2018-09-18T17:47:59.735Z,25.50
2018-09-18T17:50:33.668Z,25.40
2018-09-18T17:53:06.975Z,26.00
2018-09-18T17:55:40.645Z,25.90
2018-09-18T17:58:14.471Z,26.80
2018-09-18T18:00:52.913Z,26.90
2018-09-18T18:03:31.814Z,27.00
2018-09-18T18:06:09.149Z,26.80
2018-09-18T18:12:03.999Z,25.80
2018-09-18T18:14:37.451Z,26.20
2018-09-18T18:17:11.538Z,25.50
2018-09-18T18:23:07.258Z,26.00
2018-09-18T18:25:42.972Z,25.60
2018-09-18T18:31:38.266Z,26.90
2018-09-18T18:34:13.166Z,27.10
2018-09-18T18:36:48.713Z,26.30
2018-09-18T18:39:25.904Z,25.70
2018-09-18T18:41:59.711Z,25.90
2018-09-18T18:44:32.848Z,26.40
2018-09-18T18:50:36.882Z,26.40
2018-09-18T18:53:10.062Z,26.10
2018-09-18T18:55:43.138Z,26.70
2018-09-18T18:58:16.318Z,27.00
2018-09-18T19:00:49.421Z,26.50
2018-09-18T19:03:22.632Z,26.90
2018-09-18T19:05:55.275Z,27.40
2018-09-18T19:08:28.275Z,26.50
2018-09-18T19:11:01.877Z,26.30
2018-09-18T19:13:34.806Z,26.90
2018-09-18T19:16:08.973Z,26.80
2018-09-18T19:18:42.071Z,25.90
2018-09-18T19:21:38.292Z,25.70
2018-09-18T19:24:11.853Z,25.90
2018-09-18T19:26:44.889Z,26.40
2018-09-18T19:29:18.173Z,26.60
2018-09-18T19:31:51.590Z,26.10
2018-09-18T19:34:24.736Z,25.40
2018-09-18T19:36:58.228Z,25.70
2018-09-18T19:39:30.680Z,25.20
2018-09-18T19:42:05.628Z,25.30
2018-09-18T19:44:38.303Z,25.10
2018-09-18T19:47:12.123Z,26.40
2018-09-18T19:49:44.983Z,26.90
2018-09-18T19:52:17.927Z,25.90
2018-09-18T19:54:51.218Z,25.50
2018-09-18T19:57:24.279Z,25.20
2018-09-18T20:00:14.960Z,25.00
2018-09-18T20:02:48.136Z,24.70
2018-09-18T20:05:21.528Z,24.90
2018-09-18T20:07:55.269Z,24.90
2018-09-18T20:10:28.146Z,25.80
2018-09-18T20:13:01.734Z,26.90
2018-09-18T20:15:35.051Z,27.10
2018-09-18T20:18:09.744Z,26.70
2018-09-18T20:20:42.869Z,26.40
2018-09-18T20:23:15.885Z,26.00
2018-09-18T20:25:48.776Z,25.10
2018-09-18T20:28:28.263Z,24.60
2018-09-18T20:31:01.241Z,24.60
2018-09-18T20:33:35.847Z,25.10
2018-09-18T20:36:08.968Z,25.60
2018-09-18T20:38:42.172Z,26.20
2018-09-18T20:41:14.976Z,26.50
2018-09-18T20:43:48.035Z,26.20
2018-09-18T20:46:21.812Z,26.50
2018-09-18T20:48:55.408Z,27.30
2018-09-18T20:51:28.207Z,27.10
2018-09-18T20:54:04.779Z,26.90
2018-09-18T20:56:41.755Z,26.80
2018-09-18T20:59:14.824Z,26.80
2018-09-18T21:01:48.082Z,25.80
2018-09-18T21:04:56.956Z,25.80
2018-09-18T21:07:30.527Z,25.80
2018-09-18T21:10:04.308Z,26.00
2018-09-18T21:12:37.857Z,26.20
2018-09-18T21:15:12.610Z,25.80
2018-09-18T21:17:46.167Z,25.80
2018-09-18T21:20:20.640Z,25.90
2018-09-18T21:22:54.328Z,25.80
2018-09-18T21:25:37.766Z,25.80
2018-09-18T21:28:13.009Z,26.10
2018-09-18T21:30:51.175Z,26.10
2018-09-18T21:33:26.315Z,25.80
2018-09-18T21:36:00.061Z,26.00
2018-09-18T21:38:33.945Z,26.00
2018-09-18T21:41:07.820Z,25.50
2018-09-18T21:43:41.281Z,25.60
2018-09-18T21:46:14.775Z,25.60
2018-09-18T21:48:48.906Z,25.80
2018-09-18T21:51:22.375Z,26.10
2018-09-18T21:53:56.813Z,26.30
2018-09-18T21:56:33.491Z,26.70
2018-09-18T21:59:07.301Z,26.30
2018-09-18T22:01:41.381Z,26.10
2018-09-18T22:04:14.407Z,26.40
2018-09-18T22:06:47.852Z,26.20
2018-09-18T22:09:22.906Z,25.60
2018-09-18T22:11:56.395Z,25.60
2018-09-18T22:14:30.911Z,25.90
2018-09-18T22:17:04.441Z,25.60
2018-09-18T22:19:37.437Z,26.00
2018-09-18T22:22:10.453Z,25.90
2018-09-18T22:24:43.474Z,25.80
2018-09-18T22:27:17.043Z,25.70
2018-09-18T22:29:51.454Z,25.40
2018-09-18T22:32:25.233Z,25.40
2018-09-18T22:34:59.367Z,25.40
2018-09-18T22:38:16.645Z,25.20
2018-09-18T22:40:50.053Z,25.30
2018-09-18T22:43:22.884Z,25.30
2018-09-18T22:45:55.968Z,25.40
2018-09-18T22:48:28.835Z,25.20
2018-09-18T22:51:01.301Z,25.20
2018-09-18T22:53:36.017Z,25.40
2018-09-18T22:56:16.333Z,25.50
2018-09-18T22:59:00.910Z,25.30
2018-09-18T23:01:34.306Z,25.40
2018-09-18T23:04:07.845Z,25.20
2018-09-18T23:06:40.845Z,24.90
2018-09-18T23:09:13.565Z,25.20
2018-09-18T23:15:08.065Z,24.80
2018-09-18T23:17:40.377Z,24.80
2018-09-18T23:20:12.760Z,24.80
2018-09-18T23:22:45.962Z,24.70
2018-09-18T23:25:18.450Z,24.40
2018-09-18T23:27:50.840Z,23.90
2018-09-18T23:30:23.812Z,24.00
2018-09-18T23:32:56.102Z,23.70
2018-09-18T23:35:29.220Z,23.40
2018-09-18T23:38:01.366Z,23.20
2018-09-18T23:40:33.919Z,23.20
2018-09-18T23:43:07.132Z,23.10
2018-09-18T23:45:41.107Z,22.90
2018-09-18T23:48:23.335Z,22.90
2018-09-18T23:51:02.892Z,22.80
2018-09-18T23:53:35.633Z,22.90
2018-09-18T23:56:07.872Z,22.70
2018-09-18T23:58:41.302Z,22.70
